Terminal Aerodrome Forecast
Issued by NWS

Home | Current Version | Previous Version | Graphics & Text | Print | Product List | Glossary Off
Versions: 1 2 3 4 5 6 7 8 9 10 11 12 13 14 15 16 17 18 19 20 21 22 23 24 25 26 27 28 29 30 31

000
FTUS43 KDDC 302320
TAFHYS
TAF
KHYS 302320Z 3100/3124 00000KT P6SM FEW030 SCT050 BKN070
     FM310900 02005KT P6SM OVC030 PROB30 3109/3112 2SM -TSRA
      OVC007CB
     FM311800 04007KT P6SM BKN025
     FM311900 04007KT P6SM BKN040=

USA.gov is the U.S. government's official web portal to all federal, state and local government web resources and services.